Time;durP1;ratioP1;P1;durP2;ratioP2;P2;SDS_P1;SDS_P2;PMS_P1;PMS_P2;Temp;Humidity;BMP_temperature;BMP_pressure;BME280_temperature;BME280_humidity;BME280_pressure;Samples;Min_cycle;Max_cycle;Signal;HPM_P1;HPM_P2
2023/07/09 00:01:38;;;;;;;7.95;6.43;;;25.80;80.00;;;;;;5091338;28;20174;-68
2023/07/09 00:04:04;;;;;;;9.48;6.90;;;26.10;80.20;;;;;;5068030;28;20400;-68
2023/07/09 00:06:30;;;;;;;9.10;7.05;;;26.00;80.20;;;;;;5092350;28;20065;-64
2023/07/09 00:08:56;;;;;;;9.82;6.03;;;25.90;80.10;;;;;;5093145;28;20490;-68
2023/07/09 00:11:22;;;;;;;8.93;6.57;;;25.80;80.00;;;;;;5094180;28;20409;-68
2023/07/09 00:13:47;;;;;;;8.63;6.72;;;25.70;80.00;;;;;;5093580;28;20071;-69
2023/07/09 00:16:19;;;;;;;8.32;6.68;;;25.70;80.00;;;;;;5093718;28;20090;-70
2023/07/09 00:18:44;;;;;;;9.15;6.82;;;25.80;83.20;;;;;;5054386;28;20486;-68
2023/07/09 00:21:10;;;;;;;8.80;6.72;;;26.00;80.20;;;;;;5074159;28;20043;-62
2023/07/09 00:23:38;;;;;;;7.32;6.28;;;26.00;80.20;;;;;;5073439;28;20084;-69
2023/07/09 00:26:10;;;;;;;11.65;6.40;;;25.90;80.30;;;;;;5080218;28;20050;-64
2023/07/09 00:28:36;;;;;;;;;;;25.70;80.40;;;;;;5093033;28;20101;-69
2023/07/09 00:31:02;;;;;;;7.68;6.13;;;25.60;80.40;;;;;;5093120;28;19927;-68
2023/07/09 00:33:31;;;;;;;8.45;6.30;;;25.80;80.00;;;;;;5093711;28;20044;-69
2023/07/09 00:35:57;;;;;;;8.30;6.60;;;25.90;80.10;;;;;;5087280;28;20688;-65
2023/07/09 00:38:23;;;;;;;9.93;6.60;;;25.60;79.60;;;;;;5062828;28;20051;-69
2023/07/09 00:41:04;;;;;;;9.32;6.97;;;25.80;80.00;;;;;;5092083;28;20047;-68
2023/07/09 00:43:31;;;;;;;9.05;6.55;;;26.10;79.20;;;;;;5076050;28;20056;-69
2023/07/09 00:46:26;;;;;;;7.82;6.15;;;25.70;80.20;;;;;;5075521;28;20417;-69
2023/07/09 00:48:59;;;;;;;8.77;6.22;;;25.80;79.20;;;;;;5089760;28;20058;-65
2023/07/09 00:51:26;;;;;;;8.65;6.68;;;25.40;80.20;;;;;;5074694;28;20040;-69
2023/07/09 00:53:53;;;;;;;8.10;6.63;;;25.80;80.10;;;;;;5061730;28;20048;-67
2023/07/09 00:56:31;;;;;;;8.85;6.43;;;25.80;80.90;;;;;;5073141;28;20044;-64
2023/07/09 00:58:57;;;;;;;8.50;6.68;;;25.80;79.00;;;;;;5073730;28;20044;-69
2023/07/09 01:01:23;;;;;;;7.63;6.22;;;25.60;79.90;;;;;;5092982;28;20386;-69
2023/07/09 01:03:51;;;;;;;9.00;6.53;;;25.70;83.60;;;;;;5092968;28;20039;-69
2023/07/09 01:06:35;;;;;;;8.77;6.30;;;26.00;80.40;;;;;;5075126;28;20070;-69
2023/07/09 01:09:04;;;;;;;8.38;6.20;;;25.70;79.00;;;;;;5060478;28;20131;-68
2023/07/09 01:11:31;;;;;;;8.73;6.32;;;25.60;80.00;;;;;;5068539;28;20041;-69
2023/07/09 01:14:01;;;;;;;8.32;6.82;;;25.80;80.20;;;;;;5091221;28;20433;-69
2023/07/09 01:16:38;;;;;;;9.27;6.63;;;25.80;78.80;;;;;;5090613;28;20039;-69
2023/07/09 01:19:04;;;;;;;7.72;6.32;;;25.70;80.50;;;;;;5073488;28;20043;-68
2023/07/09 01:21:30;;;;;;;7.65;6.55;;;25.90;80.30;;;;;;5093040;28;20126;-67
2023/07/09 01:23:57;;;;;;;8.40;6.32;;;26.00;80.20;;;;;;5093001;28;20036;-69
2023/07/09 01:26:25;;;;;;;7.28;6.30;;;25.70;80.10;;;;;;5091476;28;20486;-69
2023/07/09 01:28:52;;;;;;;8.75;6.68;;;25.70;80.20;;;;;;5089876;28;20082;-66
2023/07/09 01:31:18;;;;;;;8.18;6.40;;;25.80;80.30;;;;;;5072634;28;20406;-68
2023/07/09 01:33:44;;;;;;;7.97;6.22;;;25.50;79.90;;;;;;5072283;28;20040;-66
2023/07/09 01:36:13;;;;;;;8.27;6.65;;;25.60;80.10;;;;;;5075452;28;20059;-64
2023/07/09 01:38:40;;;;;;;8.43;6.50;;;25.50;80.20;;;;;;5096584;28;20405;-68
2023/07/09 01:41:06;;;;;;;8.65;6.78;;;26.00;80.50;;;;;;5097789;28;20048;-67
2023/07/09 01:43:32;;;;;;;8.23;7.25;;;25.80;80.10;;;;;;5097839;28;20058;-63
2023/07/09 01:45:58;;;;;;;7.80;6.47;;;25.70;80.60;;;;;;5079621;28;20040;-66
2023/07/09 01:48:26;;;;;;;8.20;6.68;;;25.80;80.20;;;;;;5089619;28;20048;-69
2023/07/09 01:50:53;;;;;;;8.00;6.43;;;25.80;80.10;;;;;;5098371;28;20110;-69
2023/07/09 01:53:23;;;;;;;8.85;6.57;;;25.60;80.00;;;;;;5080979;28;20052;-69
2023/07/09 01:55:50;;;;;;;7.80;6.25;;;25.70;80.40;;;;;;5080606;28;20119;-69
2023/07/09 01:58:16;;;;;;;8.43;6.40;;;25.70;80.30;;;;;;5097804;28;20561;-69
2023/07/09 02:00:42;;;;;;;8.27;6.90;;;25.70;80.10;;;;;;5095668;28;20131;-69
2023/07/09 02:03:08;;;;;;;8.13;6.53;;;25.50;80.00;;;;;;5098968;28;20101;-69
2023/07/09 02:05:35;;;;;;;8.68;6.57;;;25.50;80.00;;;;;;5098016;28;20042;-69
2023/07/09 02:08:01;;;;;;;9.10;6.78;;;25.80;80.10;;;;;;5097995;28;20052;-69
2023/07/09 02:10:27;;;;;;;8.38;6.72;;;25.70;80.10;;;;;;5098140;28;20040;-65
2023/07/09 02:12:52;;;;;;;9.52;6.60;;;25.60;80.00;;;;;;5097754;28;20044;-69
2023/07/09 02:15:18;;;;;;;7.95;6.75;;;25.50;80.00;;;;;;5099236;28;20043;-67
2023/07/09 02:17:44;;;;;;;7.47;6.68;;;25.70;80.10;;;;;;5095767;28;20106;-67
2023/07/09 02:20:10;;;;;;;10.10;7.32;;;25.50;79.90;;;;;;5093483;28;20518;-67
2023/07/09 02:22:37;;;;;;;8.70;6.97;;;25.50;79.90;;;;;;5099280;28;20044;-67
2023/07/09 02:25:03;;;;;;;8.90;6.88;;;25.70;80.40;;;;;;5096804;28;20039;-67
2023/07/09 02:27:29;;;;;;;7.47;6.13;;;25.70;80.00;;;;;;5098717;28;20043;-67
2023/07/09 02:29:55;;;;;;;9.98;6.57;;;25.50;80.00;;;;;;5097926;28;20397;-67
2023/07/09 02:32:23;;;;;;;9.85;6.72;;;25.20;83.10;;;;;;5098093;28;20051;-67
2023/07/09 02:34:52;;;;;;;9.45;6.57;;;25.60;80.40;;;;;;5097296;28;20119;-67
2023/07/09 02:37:22;;;;;;;7.82;6.78;;;25.70;80.20;;;;;;5080254;28;20051;-69
2023/07/09 02:39:47;;;;;;;8.50;6.90;;;25.50;78.80;;;;;;5096823;28;20476;-67
2023/07/09 02:42:14;;;;;;;7.93;6.60;;;25.60;80.00;;;;;;5098358;28;20113;-69
2023/07/09 02:44:41;;;;;;;9.38;7.10;;;25.50;80.30;;;;;;5098694;28;20052;-68
2023/07/09 02:47:07;;;;;;;7.88;6.88;;;25.60;80.20;;;;;;5098019;28;20366;-65
2023/07/09 02:49:32;;;;;;;8.68;6.32;;;25.50;80.00;;;;;;5094183;28;20040;-69
2023/07/09 02:51:58;;;;;;;7.90;6.53;;;25.50;80.10;;;;;;5089286;28;20064;-69
2023/07/09 02:54:24;;;;;;;8.45;6.90;;;25.50;79.80;;;;;;5094501;28;20122;-69
2023/07/09 02:56:50;;;;;;;9.35;6.85;;;25.60;80.10;;;;;;5095638;28;20063;-67
2023/07/09 02:59:15;;;;;;;9.32;6.63;;;25.50;80.00;;;;;;5076435;28;20066;-68
2023/07/09 03:01:41;;;;;;;9.48;6.45;;;25.50;79.90;;;;;;5092394;28;20493;-69
2023/07/09 03:04:08;;;;;;;10.32;7.07;;;25.60;80.00;;;;;;5094075;28;20044;-69
2023/07/09 03:06:35;;;;;;;7.60;6.50;;;25.60;80.20;;;;;;5094759;28;20044;-67
2023/07/09 03:09:01;;;;;;;8.57;6.40;;;25.60;80.10;;;;;;5089553;28;20402;-66
2023/07/09 03:11:31;;;;;;;8.23;7.00;;;25.60;80.30;;;;;;5088818;28;20048;-68
2023/07/09 03:13:58;;;;;;;7.88;6.65;;;25.40;80.40;;;;;;5094938;28;20044;-69
2023/07/09 03:16:23;;;;;;;8.10;6.68;;;25.60;80.30;;;;;;5095360;28;20055;-67
2023/07/09 03:18:49;;;;;;;8.27;7.13;;;25.60;80.00;;;;;;5095302;28;20112;-66
2023/07/09 03:21:15;;;;;;;9.48;6.70;;;25.60;80.10;;;;;;5093181;28;20526;-67
2023/07/09 03:23:41;;;;;;;8.85;6.90;;;25.40;80.00;;;;;;5094800;28;20486;-67
2023/07/09 03:26:07;;;;;;;9.05;7.32;;;25.80;80.10;;;;;;5092422;28;20036;-67
2023/07/09 03:28:33;;;;;;;8.48;6.75;;;25.60;80.00;;;;;;5094705;28;20047;-67
2023/07/09 03:30:58;;;;;;;10.55;7.43;;;25.60;83.60;;;;;;5092413;28;20040;-67
2023/07/09 03:33:25;;;;;;;8.95;7.30;;;25.50;79.90;;;;;;5094905;28;20052;-68
2023/07/09 03:35:51;;;;;;;9.15;7.15;;;25.50;80.00;;;;;;5094580;28;20055;-67
2023/07/09 03:38:17;;;;;;;8.30;6.78;;;25.40;80.00;;;;;;5094430;28;20048;-66
2023/07/09 03:40:43;;;;;;;8.18;7.00;;;25.30;79.70;;;;;;5093836;28;20039;-67
2023/07/09 03:43:09;;;;;;;9.57;7.07;;;25.70;80.00;;;;;;5086718;28;20114;-67
2023/07/09 03:45:35;;;;;;;9.40;7.25;;;25.50;79.90;;;;;;5073103;28;20044;-67
2023/07/09 03:48:01;;;;;;;8.70;6.72;;;25.50;79.90;;;;;;5074483;28;20067;-68
2023/07/09 03:50:26;;;;;;;9.02;7.43;;;25.30;79.70;;;;;;5074125;28;20037;-67
2023/07/09 03:52:53;;;;;;;9.57;7.25;;;25.70;80.00;;;;;;5091595;28;20055;-67
2023/07/09 03:55:18;;;;;;;8.32;6.65;;;25.50;83.40;;;;;;5094269;28;20051;-69
2023/07/09 03:57:44;;;;;;;11.82;7.75;;;25.50;79.70;;;;;;5094157;28;20486;-68
2023/07/09 04:00:11;;;;;;;8.98;7.43;;;25.50;79.70;;;;;;5086333;28;20048;-68
2023/07/09 04:02:40;;;;;;;9.05;7.18;;;25.60;79.60;;;;;;5085711;28;20055;-67
2023/07/09 04:05:08;;;;;;;8.93;7.10;;;25.40;78.50;;;;;;5093907;28;20103;-67
2023/07/09 04:07:34;;;;;;;12.55;8.07;;;25.60;80.10;;;;;;5093970;28;20118;-67
2023/07/09 04:10:00;;;;;;;8.43;7.45;;;25.60;80.10;;;;;;5093946;28;20520;-67
2023/07/09 04:12:26;;;;;;;9.77;7.47;;;25.50;79.70;;;;;;5091462;28;20040;-67
2023/07/09 04:14:51;;;;;;;9.35;7.57;;;25.50;79.70;;;;;;5093437;28;20100;-67
2023/07/09 04:17:17;;;;;;;11.27;7.03;;;25.60;79.80;;;;;;5085924;28;20044;-67
2023/07/09 04:19:43;;;;;;;9.35;7.45;;;25.70;79.80;;;;;;5073564;28;20045;-67
2023/07/09 04:22:10;;;;;;;9.10;7.53;;;25.50;79.60;;;;;;5076835;28;20044;-69
2023/07/09 04:24:36;;;;;;;9.90;7.53;;;25.50;79.60;;;;;;5077556;28;20036;-67
2023/07/09 04:27:02;;;;;;;9.35;7.38;;;25.40;79.50;;;;;;5092825;28;20036;-67
2023/07/09 04:29:34;;;;;;;9.30;7.30;;;25.70;82.60;;;;;;5092092;28;20417;-68
2023/07/09 04:31:59;;;;;;;10.50;8.15;;;25.60;79.80;;;;;;5084188;28;20532;-67
2023/07/09 04:34:25;;;;;;;9.77;7.82;;;25.70;79.50;;;;;;5086816;28;20035;-67
2023/07/09 04:36:51;;;;;;;9.38;7.75;;;25.70;79.10;;;;;;5093334;28;20052;-66
2023/07/09 04:39:17;;;;;;;8.90;7.28;;;25.70;79.40;;;;;;5093747;28;20051;-67
2023/07/09 04:41:43;;;;;;;10.20;7.53;;;25.70;79.20;;;;;;5092781;28;20052;-67
2023/07/09 04:44:08;;;;;;;11.43;7.80;;;25.80;79.40;;;;;;5093618;28;20071;-67
2023/07/09 04:46:34;;;;;;;9.40;7.30;;;25.90;79.40;;;;;;5091864;28;20040;-61
2023/07/09 04:49:00;;;;;;;9.27;7.03;;;25.70;79.10;;;;;;5091976;28;20101;-69
2023/07/09 04:51:26;;;;;;;11.98;7.80;;;25.70;79.20;;;;;;5087589;28;20097;-67
2023/07/09 04:53:52;;;;;;;8.80;7.55;;;25.50;79.00;;;;;;5092013;28;20131;-68
2023/07/09 04:56:18;;;;;;;11.20;7.55;;;25.70;79.00;;;;;;5091185;28;20138;-67
2023/07/09 04:58:44;;;;;;;9.65;7.25;;;26.00;79.40;;;;;;5091408;28;20054;-61
2023/07/09 05:01:09;;;;;;;10.25;7.25;;;25.60;79.00;;;;;;5092138;28;20040;-67
2023/07/09 05:03:36;;;;;;;10.60;8.18;;;25.90;79.20;;;;;;5092059;28;20051;-68
2023/07/09 05:06:02;;;;;;;8.68;7.15;;;25.80;79.10;;;;;;5091602;28;20071;-63
2023/07/09 05:08:28;;;;;;;8.60;7.40;;;26.10;79.30;;;;;;5092284;28;20044;-69
2023/07/09 05:10:55;;;;;;;9.48;7.32;;;25.80;78.70;;;;;;5093426;28;20040;-68
2023/07/09 05:13:21;;;;;;;8.45;6.90;;;26.10;79.00;;;;;;5092199;28;20040;-69
2023/07/09 05:15:47;;;;;;;8.73;6.93;;;26.30;78.80;;;;;;5091182;28;20123;-63
2023/07/09 05:18:13;;;;;;;9.60;7.35;;;26.40;78.60;;;;;;5093100;28;20127;-68
2023/07/09 05:20:39;;;;;;;9.43;7.03;;;26.50;78.60;;;;;;5091783;28;20161;-69
2023/07/09 05:23:05;;;;;;;9.25;6.72;;;26.30;78.10;;;;;;5093017;28;20090;-68
2023/07/09 05:25:31;;;;;;;8.02;6.80;;;26.40;78.20;;;;;;5083150;28;20080;-68
2023/07/09 05:27:56;;;;;;;10.70;6.90;;;26.60;78.10;;;;;;5088844;28;20044;-67
2023/07/09 05:30:22;;;;;;;8.80;6.78;;;26.40;77.90;;;;;;5091618;28;20115;-69
2023/07/09 05:32:48;;;;;;;9.10;7.15;;;26.80;77.90;;;;;;5092867;28;20040;-67
2023/07/09 05:35:14;;;;;;;8.80;6.75;;;26.80;81.00;;;;;;5091130;28;20060;-60
2023/07/09 05:37:41;;;;;;;9.63;6.97;;;26.50;76.90;;;;;;5090959;28;20051;-68
2023/07/09 05:40:07;;;;;;;9.80;7.72;;;26.90;77.10;;;;;;5092197;28;20402;-69
2023/07/09 05:42:33;;;;;;;8.10;6.63;;;26.80;77.10;;;;;;5082242;28;20044;-66
2023/07/09 05:44:59;;;;;;;8.65;7.18;;;26.90;77.30;;;;;;5072357;28;20445;-67
2023/07/09 05:47:25;;;;;;;10.82;7.32;;;27.00;77.30;;;;;;5086392;28;20040;-65
2023/07/09 05:49:50;;;;;;;9.02;6.75;;;27.20;77.30;;;;;;5074209;28;20401;-64
2023/07/09 05:52:17;;;;;;;11.63;7.22;;;27.00;76.90;;;;;;5091919;28;20501;-68
2023/07/09 05:54:43;;;;;;;8.68;7.13;;;27.30;77.30;;;;;;5091005;28;20383;-68
2023/07/09 05:57:10;;;;;;;9.15;7.05;;;27.30;77.00;;;;;;5091469;28;20044;-68
2023/07/09 05:59:36;;;;;;;9.30;7.45;;;27.20;76.50;;;;;;5081392;28;20045;-65
2023/07/09 06:02:02;;;;;;;10.15;7.47;;;27.40;76.40;;;;;;5072214;28;20094;-67
2023/07/09 06:04:28;;;;;;;9.40;6.50;;;27.30;76.30;;;;;;5092141;28;20040;-68
2023/07/09 06:06:54;;;;;;;8.93;6.97;;;27.40;76.40;;;;;;5091255;28;20488;-63
2023/07/09 06:09:20;;;;;;;7.95;6.82;;;27.40;76.30;;;;;;5091935;28;20512;-66
2023/07/09 06:11:45;;;;;;;8.45;7.18;;;27.60;76.30;;;;;;5092619;28;20044;-68
2023/07/09 06:14:11;;;;;;;9.90;7.15;;;27.50;76.30;;;;;;5090311;28;20044;-68
2023/07/09 06:16:37;;;;;;;7.90;6.80;;;27.50;76.40;;;;;;5086219;28;20037;-68
2023/07/09 06:19:03;;;;;;;8.68;6.75;;;27.50;76.10;;;;;;5091936;28;20047;-68
2023/07/09 06:21:29;;;;;;;8.73;6.63;;;27.60;76.20;;;;;;5092217;28;20052;-68
2023/07/09 06:23:55;;;;;;;8.10;6.50;;;27.60;76.10;;;;;;5092856;28;20040;-66
2023/07/09 06:26:20;;;;;;;9.27;7.00;;;27.80;76.10;;;;;;5076200;28;20040;-69
2023/07/09 06:28:46;;;;;;;10.60;6.68;;;27.70;76.00;;;;;;5096205;28;20559;-69
2023/07/09 06:31:12;;;;;;;8.48;6.30;;;27.80;76.00;;;;;;5095871;28;20489;-63
2023/07/09 06:33:38;;;;;;;8.13;6.55;;;27.70;75.90;;;;;;5083779;28;20064;-64
2023/07/09 06:36:04;;;;;;;8.15;6.95;;;27.80;75.90;;;;;;5075511;28;20082;-66
2023/07/09 06:38:30;;;;;;;9.57;6.47;;;27.60;75.50;;;;;;5093357;28;20094;-66
2023/07/09 06:40:57;;;;;;;9.80;7.05;;;27.70;75.90;;;;;;5094817;28;20075;-68
2023/07/09 06:43:22;;;;;;;7.82;6.47;;;27.60;76.20;;;;;;5095496;28;20063;-69
2023/07/09 06:45:56;;;;;;;8.80;6.82;;;27.60;75.90;;;;;;5095468;28;20036;-66
2023/07/09 06:48:22;;;;;;;7.70;6.78;;;27.80;75.00;;;;;;5092786;28;20123;-66
2023/07/09 06:50:48;;;;;;;9.02;7.05;;;27.70;76.20;;;;;;5082464;28;20487;-68
2023/07/09 06:53:14;;;;;;;7.93;6.50;;;27.50;76.10;;;;;;5091517;28;20046;-62
2023/07/09 06:55:40;;;;;;;8.65;6.68;;;27.70;76.30;;;;;;5095745;28;20051;-68
2023/07/09 06:58:06;;;;;;;7.63;6.63;;;27.60;76.00;;;;;;5094650;28;20044;-68
2023/07/09 07:00:36;;;;;;;7.85;6.53;;;27.60;76.20;;;;;;5095345;28;20047;-68
2023/07/09 07:03:02;;;;;;;8.45;6.78;;;27.50;74.90;;;;;;5079296;28;20412;-61
2023/07/09 07:05:28;;;;;;;9.95;6.97;;;27.50;76.00;;;;;;5095447;28;20051;-65
2023/07/09 07:07:53;;;;;;;7.97;6.60;;;27.70;76.10;;;;;;5090944;28;20035;-65
2023/07/09 07:10:19;;;;;;;7.70;6.55;;;27.90;76.30;;;;;;5095465;28;20044;-66
2023/07/09 07:12:46;;;;;;;8.38;6.70;;;27.60;75.90;;;;;;5094136;28;20394;-69
2023/07/09 07:15:14;;;;;;;7.60;6.15;;;28.00;76.40;;;;;;5085434;28;20044;-69
2023/07/09 07:17:40;;;;;;;7.85;6.72;;;28.10;76.30;;;;;;5079157;28;20047;-61
2023/07/09 07:20:07;;;;;;;9.60;7.10;;;28.20;76.00;;;;;;5092304;28;20040;-70
2023/07/09 07:22:32;;;;;;;13.63;7.80;;;28.00;75.50;;;;;;5058563;28;20501;-64
2023/07/09 07:24:58;;;;;;;125.07;35.13;;;28.00;75.80;;;;;;5084663;28;20059;-68
2023/07/09 07:27:24;;;;;;;232.13;51.45;;;27.90;75.70;;;;;;5095116;28;20123;-70
2023/07/09 07:29:49;;;;;;;204.32;47.08;;;27.90;75.70;;;;;;5093658;28;20512;-64
2023/07/09 07:32:15;;;;;;;181.93;43.65;;;28.10;75.70;;;;;;5093933;28;20040;-61
2023/07/09 07:34:41;;;;;;;113.53;30.33;;;28.30;76.00;;;;;;5094384;28;20489;-68
2023/07/09 07:37:07;;;;;;;63.28;23.23;;;28.10;75.80;;;;;;5094345;28;20044;-69
2023/07/09 07:39:33;;;;;;;120.85;33.97;;;28.20;75.80;;;;;;5092223;28;20071;-68
2023/07/09 07:41:58;;;;;;;88.10;26.52;;;28.30;75.90;;;;;;5093004;28;20065;-63
2023/07/09 07:44:24;;;;;;;73.90;22.98;;;28.20;75.70;;;;;;5094519;28;20568;-67
2023/07/09 07:46:50;;;;;;;58.25;19.98;;;28.00;75.70;;;;;;5095014;28;20044;-62
2023/07/09 07:49:16;;;;;;;43.35;19.20;;;28.30;75.80;;;;;;5093769;28;20050;-62
2023/07/09 07:51:42;;;;;;;51.15;19.67;;;28.40;75.80;;;;;;5076396;28;20168;-63
2023/07/09 07:54:09;;;;;;;34.85;15.88;;;28.50;76.00;;;;;;5094854;28;20048;-62
2023/07/09 07:56:36;;;;;;;43.67;18.42;;;28.40;76.00;;;;;;5077062;28;20044;-63
2023/07/09 07:59:02;;;;;;;25.38;13.73;;;28.40;76.10;;;;;;5089493;28;20040;-68
2023/07/09 08:01:28;;;;;;;24.63;13.70;;;28.60;76.00;;;;;;5093216;28;20462;-70
2023/07/09 08:03:54;;;;;;;23.15;13.23;;;28.80;75.90;;;;;;5093915;28;20044;-70
2023/07/09 08:06:21;;;;;;;27.90;13.15;;;28.40;75.50;;;;;;5093247;28;20044;-68
2023/07/09 08:08:46;;;;;;;23.27;13.10;;;28.50;75.90;;;;;;5093196;28;20374;-69
2023/07/09 08:11:14;;;;;;;17.00;11.32;;;28.80;75.70;;;;;;5074382;28;20154;-67
2023/07/09 08:13:41;;;;;;;15.52;11.25;;;28.90;75.90;;;;;;5090934;28;20140;-69
2023/07/09 08:16:07;;;;;;;17.45;11.60;;;28.90;75.70;;;;;;5079304;28;20059;-70
2023/07/09 08:18:32;;;;;;;14.63;10.55;;;28.90;75.50;;;;;;5091428;28;20044;-68
2023/07/09 08:21:02;;;;;;;16.05;11.38;;;28.80;75.50;;;;;;5093346;28;20040;-61
2023/07/09 08:23:28;;;;;;;13.45;10.73;;;28.90;75.80;;;;;;5093829;28;20055;-61
2023/07/09 08:25:54;;;;;;;15.45;10.60;;;28.80;75.70;;;;;;5090864;28;20482;-61
2023/07/09 08:28:20;;;;;;;16.15;10.55;;;28.80;76.00;;;;;;5083846;28;20051;-62
2023/07/09 08:30:46;;;;;;;13.48;10.52;;;29.00;76.00;;;;;;5092825;28;20640;-70
2023/07/09 08:33:11;;;;;;;13.65;10.27;;;28.80;75.80;;;;;;5091586;28;20143;-71
2023/07/09 08:35:37;;;;;;;17.17;10.35;;;28.90;76.20;;;;;;5088914;28;20149;-70
2023/07/09 08:38:03;;;;;;;14.55;10.30;;;28.70;75.80;;;;;;5089725;28;20088;-71
2023/07/09 08:40:29;;;;;;;13.70;9.90;;;28.80;76.10;;;;;;5092181;28;20048;-60
2023/07/09 08:43:13;;;;;;;18.23;10.25;;;28.70;75.80;;;;;;5091607;28;20051;-61
2023/07/09 08:45:47;;;;;;;15.38;10.27;;;28.80;76.40;;;;;;5063209;28;20124;-66
2023/07/09 08:48:22;;;;;;;14.60;9.98;;;28.90;74.70;;;;;;5073153;28;20043;-65
2023/07/09 08:50:52;;;;;;;14.32;9.80;;;28.90;76.40;;;;;;5075196;28;20044;-64
2023/07/09 08:53:48;;;;;;;13.73;9.63;;;28.80;76.20;;;;;;5058602;28;20413;-64
2023/07/09 08:56:14;;;;;;;15.05;10.52;;;29.10;76.40;;;;;;5090556;28;20068;-65
2023/07/09 08:58:40;;;;;;;13.70;9.70;;;29.20;75.90;;;;;;5075118;28;20109;-63
2023/07/09 09:01:11;;;;;;;13.02;9.60;;;29.20;75.90;;;;;;5075371;28;20048;-61
2023/07/09 09:03:44;;;;;;;13.55;9.65;;;29.10;76.10;;;;;;5092153;28;20568;-71
2023/07/09 09:06:19;;;;;;;17.17;10.57;;;29.50;74.60;;;;;;5072545;28;20051;-61
2023/07/09 09:09:03;;;;;;;12.93;9.90;;;29.30;75.90;;;;;;5090945;28;20043;-64
2023/07/09 09:11:49;;;;;;;13.32;10.00;;;29.30;74.10;;;;;;5092636;28;20486;-60
2023/07/09 09:14:38;;;;;;;17.08;10.07;;;29.20;75.70;;;;;;5092269;28;20047;-61
2023/07/09 09:17:11;;;;;;;14.45;9.40;;;29.30;74.30;;;;;;5075116;28;20074;-64
2023/07/09 09:19:43;;;;;;;13.48;9.70;;;29.30;74.20;;;;;;5076073;28;20097;-62
2023/07/09 09:22:11;;;;;;;13.37;10.27;;;29.10;75.30;;;;;;5068254;28;20417;-64
2023/07/09 09:25:14;;;;;;;14.63;9.30;;;29.40;75.40;;;;;;5073943;28;20048;-67
2023/07/09 09:27:40;;;;;;;14.80;9.85;;;29.20;74.00;;;;;;5092843;28;20113;-67
2023/07/09 09:30:16;;;;;;;12.55;9.23;;;29.50;75.30;;;;;;5090412;28;20036;-64
2023/07/09 09:32:52;;;;;;;13.88;8.57;;;29.40;74.00;;;;;;5074006;28;20044;-64
2023/07/09 09:35:20;;;;;;;12.77;9.13;;;29.60;76.40;;;;;;5072708;28;20036;-67
2023/07/09 09:37:57;;;;;;;13.63;9.38;;;29.30;75.10;;;;;;5091131;28;20051;-67
2023/07/09 09:40:24;;;;;;;17.10;9.57;;;29.50;75.50;;;;;;5086479;28;20049;-60
2023/07/09 09:42:51;;;;;;;13.63;9.55;;;29.50;75.20;;;;;;5072305;28;20079;-61
2023/07/09 09:45:20;;;;;;;14.75;8.77;;;29.70;75.00;;;;;;5081161;28;20048;-60
2023/07/09 09:47:46;;;;;;;12.00;8.82;;;29.40;74.60;;;;;;5085506;28;20048;-63
2023/07/09 09:50:16;;;;;;;13.82;9.30;;;29.60;74.40;;;;;;5089254;28;20047;-65
2023/07/09 09:52:43;;;;;;;12.55;8.48;;;29.40;74.50;;;;;;5092650;28;20048;-61
2023/07/09 09:55:19;;;;;;;14.05;9.45;;;29.70;74.30;;;;;;5074582;28;20056;-61
2023/07/09 09:57:50;;;;;;;14.75;8.90;;;29.80;74.90;;;;;;5080908;28;20052;-64
2023/07/09 10:00:16;;;;;;;10.75;8.25;;;29.60;74.80;;;;;;5088131;28;20059;-63
2023/07/09 10:02:42;;;;;;;15.93;9.18;;;29.90;74.50;;;;;;5095723;28;20393;-65
2023/07/09 10:05:15;;;;;;;12.43;8.98;;;29.70;74.50;;;;;;5096743;28;20040;-64
2023/07/09 10:07:47;;;;;;;14.02;9.40;;;29.50;74.70;;;;;;5096354;28;20054;-65
2023/07/09 10:10:15;;;;;;;12.20;8.10;;;29.70;75.00;;;;;;5076215;28;20040;-67
2023/07/09 10:12:49;;;;;;;11.93;8.80;;;29.80;75.10;;;;;;5076371;28;20497;-67
2023/07/09 10:15:28;;;;;;;10.85;8.70;;;29.70;73.50;;;;;;5077140;28;20039;-67
2023/07/09 10:18:31;;;;;;;11.90;8.40;;;29.50;75.00;;;;;;5076340;28;20673;-71
2023/07/09 10:21:07;;;;;;;;;;;29.70;73.90;;;;;;5094690;28;20154;-67
2023/07/09 10:23:40;;;;;;;14.85;9.27;;;29.60;74.00;;;;;;5096138;28;19920;-67
2023/07/09 10:26:24;;;;;;;14.48;9.50;;;29.80;75.60;;;;;;5077600;28;20051;-67
2023/07/09 10:29:27;;;;;;;13.25;8.65;;;29.80;74.10;;;;;;5073224;28;20107;-67
2023/07/09 10:32:12;;;;;;;13.35;9.05;;;29.60;74.00;;;;;;5089095;28;20079;-67
2023/07/09 10:34:50;;;;;;;13.27;8.13;;;29.80;75.30;;;;;;5077837;28;20428;-67
2023/07/09 10:37:40;;;;;;;12.90;8.68;;;29.80;75.20;;;;;;5071986;28;20139;-67
2023/07/09 10:40:09;;;;;;;14.20;8.15;;;29.80;74.10;;;;;;5075481;28;20052;-68
2023/07/09 10:42:45;;;;;;;12.63;8.93;;;29.90;75.30;;;;;;5060112;28;20082;-67
2023/07/09 10:45:13;;;;;;;11.80;8.38;;;29.80;75.60;;;;;;5038382;28;20063;-67
2023/07/09 10:47:41;;;;;;;13.05;8.70;;;29.80;75.40;;;;;;5073864;28;20056;-67
2023/07/09 10:50:18;;;;;;;11.82;8.27;;;29.70;75.30;;;;;;5056513;28;20124;-61
2023/07/09 10:52:46;;;;;;;10.98;8.00;;;30.00;74.10;;;;;;5068629;28;20040;-68
2023/07/09 10:55:21;;;;;;;12.95;8.68;;;29.90;75.60;;;;;;5055510;28;20119;-67
2023/07/09 10:58:04;;;;;;;11.43;8.80;;;29.90;76.50;;;;;;5069266;28;20112;-67
2023/07/09 11:00:37;;;;;;;12.55;8.45;;;29.90;74.40;;;;;;5071960;28;20040;-67
2023/07/09 11:03:13;;;;;;;13.15;8.23;;;29.90;74.10;;;;;;5067972;28;20044;-67
2023/07/09 11:05:39;;;;;;;12.20;7.60;;;30.00;75.20;;;;;;5063440;28;20048;-67
2023/07/09 11:08:06;;;;;;;11.45;8.27;;;29.90;74.80;;;;;;5069670;28;20391;-68
2023/07/09 11:10:56;;;;;;;11.80;7.88;;;29.90;75.30;;;;;;5052819;28;20053;-67
2023/07/09 11:13:36;;;;;;;11.15;7.75;;;30.00;73.90;;;;;;5051618;28;20143;-68
2023/07/09 11:16:02;;;;;;;10.73;7.38;;;29.80;75.70;;;;;;5073923;28;20098;-67
2023/07/09 11:18:31;;;;;;;13.73;8.13;;;30.10;75.20;;;;;;5056937;28;20052;-68
2023/07/09 11:21:16;;;;;;;12.82;8.00;;;29.90;75.30;;;;;;5054181;28;20045;-67
2023/07/09 11:23:50;;;;;;;11.23;7.80;;;29.80;75.60;;;;;;5054672;28;20045;-67
2023/07/09 11:26:33;;;;;;;9.52;7.43;;;30.10;74.00;;;;;;5074931;28;20119;-67
2023/07/09 11:29:01;;;;;;;11.27;7.90;;;29.90;75.70;;;;;;5057326;28;20098;-67
2023/07/09 11:31:40;;;;;;;11.75;7.38;;;29.90;75.80;;;;;;5061742;28;20102;-65
2023/07/09 11:34:10;;;;;;;9.73;7.80;;;30.20;74.20;;;;;;5060647;28;20040;-67
2023/07/09 11:36:50;;;;;;;10.68;7.35;;;30.30;75.30;;;;;;5062212;28;20086;-67
2023/07/09 11:39:38;;;;;;;11.88;7.18;;;30.00;73.50;;;;;;5085732;28;20041;-68
2023/07/09 11:42:22;;;;;;;10.45;7.25;;;30.40;73.60;;;;;;5074335;28;20048;-66
2023/07/09 11:44:48;;;;;;;10.60;7.22;;;30.60;74.70;;;;;;5074356;28;20097;-66
2023/07/09 11:47:28;;;;;;;10.02;7.40;;;30.10;74.20;;;;;;5076356;28;20485;-68
2023/07/09 11:50:00;;;;;;;10.55;7.93;;;30.40;75.10;;;;;;5094441;28;20052;-68
2023/07/09 11:52:42;;;;;;;9.63;7.50;;;30.30;75.50;;;;;;5091418;28;20047;-64
2023/07/09 11:55:33;;;;;;;11.95;7.03;;;30.20;75.10;;;;;;5077963;28;20127;-65
2023/07/09 11:58:00;;;;;;;11.43;7.80;;;30.10;73.70;;;;;;5090363;28;20063;-63
2023/07/09 12:00:28;;;;;;;11.73;8.02;;;30.10;74.90;;;;;;5089803;28;20117;-61
2023/07/09 12:02:54;;;;;;;9.50;7.55;;;30.10;74.90;;;;;;5091330;28;20067;-71
2023/07/09 12:05:22;;;;;;;10.80;7.93;;;30.30;74.80;;;;;;5069884;28;20105;-67
2023/07/09 12:07:47;;;;;;;11.15;7.78;;;30.30;75.10;;;;;;5095140;28;20040;-69
2023/07/09 12:10:23;;;;;;;9.60;7.80;;;30.10;74.70;;;;;;5057978;28;20049;-68
2023/07/09 12:12:53;;;;;;;10.25;7.40;;;30.00;73.60;;;;;;5060618;28;20127;-68
2023/07/09 12:15:21;;;;;;;9.98;7.40;;;30.20;75.20;;;;;;5092403;28;20048;-68
2023/07/09 12:17:59;;;;;;;9.90;7.63;;;30.20;75.10;;;;;;5090976;28;20124;-63
2023/07/09 12:20:29;;;;;;;11.73;7.50;;;30.00;75.20;;;;;;5092660;28;20143;-65
2023/07/09 12:22:54;;;;;;;9.95;7.82;;;30.10;75.20;;;;;;5075421;28;20044;-64
2023/07/09 12:25:27;;;;;;;12.23;9.00;;;30.10;74.80;;;;;;5093646;28;20055;-64
2023/07/09 12:27:53;;;;;;;10.55;8.07;;;30.30;73.90;;;;;;5075180;28;20039;-62
2023/07/09 12:30:19;;;;;;;13.50;8.10;;;30.30;75.20;;;;;;5090721;28;20051;-67
2023/07/09 12:32:57;;;;;;;10.23;7.70;;;29.90;75.00;;;;;;5100617;28;20043;-67
2023/07/09 12:35:23;;;;;;;11.70;8.48;;;30.30;76.00;;;;;;5074182;28;20382;-61
2023/07/09 12:37:50;;;;;;;11.40;8.07;;;30.10;75.50;;;;;;5091778;28;20059;-61
2023/07/09 12:40:21;;;;;;;14.90;8.48;;;30.10;76.10;;;;;;5074225;28;20048;-64
2023/07/09 12:42:47;;;;;;;11.13;7.85;;;30.10;74.90;;;;;;5086895;28;20044;-70
2023/07/09 12:45:18;;;;;;;11.52;8.10;;;29.70;75.90;;;;;;5072938;28;20040;-63
2023/07/09 12:47:45;;;;;;;12.13;8.38;;;30.00;76.80;;;;;;5087701;28;20048;-64
2023/07/09 12:50:32;;;;;;;11.25;8.45;;;30.10;76.80;;;;;;5074865;28;20048;-64